createdAt,value
2024-03-15T00:02:55.809Z,7.25
2024-03-15T00:07:58.731Z,7.20
2024-03-15T00:13:04.545Z,7.18
2024-03-15T00:18:08.949Z,7.20
2024-03-15T00:23:12.491Z,7.21
2024-03-15T00:28:15.350Z,7.21
2024-03-15T00:33:22.853Z,7.16
2024-03-15T00:38:25.704Z,7.11
2024-03-15T00:43:29.050Z,7.08
2024-03-15T00:48:32.042Z,7.05
2024-03-15T00:53:35.867Z,6.97
2024-03-15T00:58:40.095Z,6.84
2024-03-15T01:03:43.021Z,6.68
2024-03-15T01:08:46.184Z,6.54
2024-03-15T01:13:55.281Z,6.46
2024-03-15T01:18:58.791Z,6.36
2024-03-15T01:24:01.735Z,6.25
2024-03-15T01:29:04.574Z,6.16
2024-03-15T01:34:07.482Z,6.12
2024-03-15T01:39:10.463Z,6.15
2024-03-15T01:44:15.068Z,6.14
2024-03-15T01:49:18.448Z,6.08
2024-03-15T01:54:21.291Z,5.96
2024-03-15T01:59:26.178Z,5.85
2024-03-15T02:04:29.002Z,5.75
2024-03-15T02:09:31.933Z,5.62
2024-03-15T02:14:35.174Z,5.50
2024-03-15T02:19:38.288Z,5.40
2024-03-15T02:24:42.034Z,5.35
2024-03-15T02:29:46.461Z,5.31
2024-03-15T02:34:52.118Z,5.25
2024-03-15T02:39:55.075Z,5.22
2024-03-15T02:44:58.089Z,5.22
2024-03-15T02:50:01.237Z,5.24
2024-03-15T02:55:05.696Z,5.26
2024-03-15T03:00:11.344Z,5.26
2024-03-15T03:05:14.280Z,5.27
2024-03-15T03:10:17.111Z,5.29
2024-03-15T03:15:21.431Z,5.33
2024-03-15T03:20:25.260Z,5.38
2024-03-15T03:25:28.433Z,5.40
2024-03-15T03:30:31.558Z,5.46
2024-03-15T03:35:34.695Z,5.54
2024-03-15T03:40:38.373Z,5.65
2024-03-15T03:45:48.430Z,5.75
2024-03-15T03:50:52.076Z,5.85
2024-03-15T03:55:54.983Z,5.93
2024-03-15T04:01:00.437Z,5.99
2024-03-15T04:06:03.850Z,6.07
2024-03-15T04:11:06.795Z,6.12
2024-03-15T04:16:09.836Z,6.15
2024-03-15T04:21:13.512Z,6.19
2024-03-15T04:26:16.988Z,6.26
2024-03-15T04:31:22.103Z,6.31
2024-03-15T04:36:25.734Z,6.35
2024-03-15T04:41:29.004Z,6.36
2024-03-15T04:46:32.003Z,6.37
2024-03-15T04:51:35.233Z,6.40
2024-03-15T04:56:38.054Z,6.43
2024-03-15T05:01:40.910Z,6.47
2024-03-15T05:06:44.943Z,6.47
2024-03-15T05:11:48.012Z,6.50
2024-03-15T05:16:57.550Z,6.54
2024-03-15T05:22:01.141Z,6.62
2024-03-15T05:27:04.533Z,6.70
2024-03-15T05:32:08.382Z,6.75
2024-03-15T05:37:11.432Z,6.82
2024-03-15T05:42:14.444Z,6.92
2024-03-15T05:47:18.011Z,6.99
2024-03-15T05:52:21.739Z,7.05
2024-03-15T05:57:28.202Z,7.12
2024-03-15T06:02:31.265Z,7.21
2024-03-15T06:07:35.696Z,7.35
2024-03-15T06:12:38.698Z,7.50
2024-03-15T06:17:42.504Z,7.65
2024-03-15T06:22:49.032Z,7.80
2024-03-15T06:27:52.279Z,7.93
2024-03-15T06:33:00.444Z,8.08
2024-03-15T06:38:18.419Z,8.21
2024-03-15T06:43:36.964Z,8.31
2024-03-15T06:48:46.254Z,8.38
2024-03-15T06:53:49.267Z,8.45
2024-03-15T06:58:52.106Z,8.58
2024-03-15T07:03:56.940Z,8.71
2024-03-15T07:09:00.714Z,8.77
2024-03-15T07:14:05.926Z,8.81
2024-03-15T07:19:09.409Z,8.86
2024-03-15T07:24:12.755Z,8.96
2024-03-15T07:29:15.916Z,9.05
2024-03-15T07:34:19.175Z,9.11
2024-03-15T07:39:24.529Z,9.21
2024-03-15T07:44:29.164Z,9.37
2024-03-15T07:49:32.070Z,9.55
2024-03-15T07:54:35.421Z,9.73
2024-03-15T07:59:38.606Z,9.95
2024-03-15T08:04:46.796Z,10.25
2024-03-15T08:09:50.187Z,10.60
2024-03-15T08:14:53.487Z,11.00
2024-03-15T08:19:56.735Z,11.44
2024-03-15T08:24:59.700Z,11.77
2024-03-15T08:30:05.450Z,12.03
2024-03-15T08:35:09.391Z,12.24
2024-03-15T08:40:14.557Z,12.39
2024-03-15T08:45:18.653Z,12.46
2024-03-15T08:50:38.016Z,12.57
2024-03-15T08:55:43.759Z,12.75
2024-03-15T09:00:50.014Z,12.84
2024-03-15T09:05:53.040Z,12.83
2024-03-15T09:10:55.874Z,12.73
2024-03-15T09:15:59.797Z,12.60
2024-03-15T09:21:02.785Z,12.44
2024-03-15T09:26:08.454Z,12.35
2024-03-15T09:31:24.004Z,12.36
2024-03-15T09:36:35.210Z,12.45
2024-03-15T09:41:39.661Z,12.64
2024-03-15T09:46:43.624Z,12.94
2024-03-15T09:51:51.497Z,13.34
2024-03-15T09:56:55.052Z,13.72
2024-03-15T10:01:58.296Z,13.91
2024-03-15T10:07:03.030Z,13.86
2024-03-15T10:12:06.375Z,13.81
2024-03-15T10:17:11.196Z,13.83
2024-03-15T10:22:14.166Z,13.94
2024-03-15T10:27:17.783Z,14.13
2024-03-15T10:32:20.830Z,14.25
2024-03-15T10:37:24.294Z,14.35
2024-03-15T10:42:27.707Z,14.47
2024-03-15T10:47:30.984Z,14.62
2024-03-15T10:52:35.380Z,14.74
2024-03-15T10:57:39.660Z,14.90
2024-03-15T11:02:46.332Z,15.02
2024-03-15T11:08:01.830Z,15.13
2024-03-15T11:13:05.426Z,15.28
2024-03-15T11:18:10.563Z,15.50
2024-03-15T11:23:18.627Z,15.56
2024-03-15T11:28:23.167Z,15.58
2024-03-15T11:33:27.473Z,15.62
2024-03-15T11:38:30.732Z,15.62
2024-03-15T11:43:34.237Z,15.65
2024-03-15T11:48:37.410Z,15.73
2024-03-15T11:53:40.439Z,15.89
2024-03-15T11:58:43.308Z,16.03
2024-03-15T12:03:46.983Z,16.25
2024-03-15T12:08:50.615Z,16.44
2024-03-15T12:14:01.055Z,16.53
2024-03-15T12:19:04.313Z,16.63
2024-03-15T12:24:08.730Z,16.69
2024-03-15T12:29:11.645Z,16.81
2024-03-15T12:34:14.592Z,16.94
2024-03-15T12:39:17.504Z,16.98
2024-03-15T12:44:20.639Z,16.92
2024-03-15T12:49:57.759Z,17.04
2024-03-15T12:55:01.090Z,17.12
2024-03-15T13:00:07.814Z,17.16
2024-03-15T13:05:15.634Z,17.09
2024-03-15T13:10:20.738Z,17.04
2024-03-15T13:15:24.307Z,17.04
2024-03-15T13:20:27.451Z,16.99
2024-03-15T13:25:36.364Z,16.97
2024-03-15T13:30:41.421Z,16.82
2024-03-15T13:35:44.706Z,16.71
2024-03-15T13:40:48.241Z,16.54
2024-03-15T13:45:58.351Z,16.32
2024-03-15T13:51:01.698Z,16.11
2024-03-15T13:56:11.417Z,15.94
2024-03-15T14:01:19.822Z,15.81
2024-03-15T14:06:22.763Z,15.77
2024-03-15T14:11:25.508Z,15.64
2024-03-15T14:16:28.167Z,15.49
2024-03-15T14:21:30.997Z,15.34
2024-03-15T14:26:37.210Z,15.25
2024-03-15T14:31:39.910Z,15.24
2024-03-15T14:36:42.932Z,15.35
2024-03-15T14:41:45.520Z,15.37
2024-03-15T14:46:48.155Z,15.31
2024-03-15T14:51:50.964Z,15.29
2024-03-15T14:56:53.555Z,15.35
2024-03-15T15:01:56.273Z,15.61
2024-03-15T15:06:59.052Z,15.65
2024-03-15T15:12:02.114Z,15.64
2024-03-15T15:17:08.521Z,15.62
2024-03-15T15:22:11.730Z,15.39
2024-03-15T15:27:18.513Z,15.03
2024-03-15T15:32:21.326Z,14.65
2024-03-15T15:37:23.972Z,14.23
2024-03-15T15:42:28.107Z,13.81
2024-03-15T15:47:31.232Z,13.37
2024-03-15T15:52:35.139Z,12.99
2024-03-15T15:57:41.851Z,12.67
2024-03-15T16:02:45.740Z,12.35
2024-03-15T16:07:48.573Z,12.00
2024-03-15T16:12:51.277Z,11.69
2024-03-15T16:17:54.170Z,11.41
2024-03-15T16:22:58.267Z,11.13
2024-03-15T16:28:01.275Z,10.85
2024-03-15T16:33:07.445Z,10.59
2024-03-15T16:38:11.783Z,10.32
2024-03-15T16:43:14.576Z,10.09
2024-03-15T16:48:19.960Z,9.91
2024-03-15T16:53:24.261Z,9.77
2024-03-15T16:58:29.575Z,9.64
2024-03-15T17:03:34.431Z,9.52
2024-03-15T17:08:38.715Z,9.38
2024-03-15T17:13:41.565Z,9.27
2024-03-15T17:18:46.658Z,9.16
2024-03-15T17:23:50.085Z,9.08
2024-03-15T17:28:52.784Z,9.03
2024-03-15T17:33:55.828Z,8.97
2024-03-15T17:38:58.899Z,8.89
2024-03-15T17:44:01.557Z,8.79
2024-03-15T17:49:04.350Z,8.69
2024-03-15T17:54:07.018Z,8.60
2024-03-15T17:59:09.793Z,8.54
2024-03-15T18:04:12.631Z,8.48
2024-03-15T18:09:15.352Z,8.40
2024-03-15T18:14:18.180Z,8.31
2024-03-15T18:19:20.827Z,8.20
2024-03-15T18:24:23.851Z,8.12
2024-03-15T18:29:28.264Z,8.07
2024-03-15T18:34:30.966Z,8.05
2024-03-15T18:39:34.159Z,8.00
2024-03-15T18:44:36.984Z,7.92
2024-03-15T18:49:43.275Z,7.83
2024-03-15T18:54:49.800Z,7.74
2024-03-15T19:00:01.074Z,7.70
2024-03-15T19:05:05.692Z,7.66
2024-03-15T19:10:09.643Z,7.59
2024-03-15T19:15:12.685Z,7.52
2024-03-15T19:20:16.680Z,7.47
2024-03-15T19:25:20.458Z,7.44
2024-03-15T19:30:23.387Z,7.41
2024-03-15T19:35:26.190Z,7.37
2024-03-15T19:40:28.813Z,7.31
2024-03-15T19:45:31.509Z,7.27
2024-03-15T19:50:35.077Z,7.26
2024-03-15T19:55:39.459Z,7.24
2024-03-15T20:00:42.271Z,7.20
2024-03-15T20:05:47.353Z,7.15
2024-03-15T20:10:50.665Z,7.10
2024-03-15T20:15:55.183Z,7.08
2024-03-15T20:20:57.820Z,7.07
2024-03-15T20:26:00.632Z,7.02
2024-03-15T20:31:05.407Z,6.94
2024-03-15T20:36:08.003Z,6.88
2024-03-15T20:41:11.154Z,6.86
2024-03-15T20:46:16.188Z,6.82
2024-03-15T20:51:21.922Z,6.77
2024-03-15T20:56:26.056Z,6.71
2024-03-15T21:01:28.830Z,6.67
2024-03-15T21:06:34.971Z,6.66
2024-03-15T21:11:38.080Z,6.65
2024-03-15T21:16:41.259Z,6.63
2024-03-15T21:21:44.075Z,6.57
2024-03-15T21:26:47.018Z,6.55
2024-03-15T21:31:50.476Z,6.54
2024-03-15T21:36:54.202Z,6.55
2024-03-15T21:41:58.264Z,6.52
2024-03-15T21:47:00.980Z,6.48
2024-03-15T21:52:05.646Z,6.45
2024-03-15T21:57:08.290Z,6.44
2024-03-15T22:02:15.171Z,6.44
2024-03-15T22:07:18.108Z,6.44
2024-03-15T22:12:20.792Z,6.42
2024-03-15T22:17:23.634Z,6.42
2024-03-15T22:22:26.306Z,6.42
2024-03-15T22:27:29.022Z,6.39
2024-03-15T22:32:31.808Z,6.33
2024-03-15T22:37:34.429Z,6.28
2024-03-15T22:42:37.226Z,6.25
2024-03-15T22:47:40.143Z,6.25
2024-03-15T22:52:44.529Z,6.24
2024-03-15T22:57:47.208Z,6.19
2024-03-15T23:02:54.201Z,6.11
2024-03-15T23:07:57.091Z,6.04
2024-03-15T23:13:02.397Z,6.00
2024-03-15T23:18:07.232Z,5.97
2024-03-15T23:23:10.490Z,5.92
2024-03-15T23:28:13.311Z,5.88
2024-03-15T23:33:18.631Z,5.85
2024-03-15T23:38:21.425Z,5.83
2024-03-15T23:43:24.066Z,5.82
2024-03-15T23:48:28.531Z,5.78
2024-03-15T23:53:31.301Z,5.71
2024-03-15T23:58:33.968Z,5.66
